Time;durP1;ratioP1;P1;durP2;ratioP2;P2;SDS_P1;SDS_P2;PMS_P1;PMS_P2;Temp;Humidity;BMP_temperature;BMP_pressure;BME280_temperature;BME280_humidity;BME280_pressure;Samples;Min_cycle;Max_cycle;Signal;HPM_P1;HPM_P2
2021/11/27 00:00:18;;;;;;;4.38;1.08;;;17.00;66.70;;;;;;5032425;28;20072;-29
2021/11/27 00:02:43;;;;;;;3.47;1.25;;;17.00;66.70;;;;;;5030852;28;20032;-29
2021/11/27 00:05:09;;;;;;;6.50;0.90;;;17.10;66.50;;;;;;5036197;28;20021;-27
2021/11/27 00:07:35;;;;;;;3.60;0.80;;;17.00;66.50;;;;;;5035259;28;20018;-28
2021/11/27 00:10:01;;;;;;;3.78;0.90;;;17.00;67.20;;;;;;5031069;28;20026;-30
2021/11/27 00:12:26;;;;;;;4.47;1.00;;;17.00;67.50;;;;;;5018921;28;20022;-30
2021/11/27 00:14:52;;;;;;;4.32;1.10;;;17.00;67.60;;;;;;5029495;28;20237;-31
2021/11/27 00:17:17;;;;;;;2.55;1.00;;;17.10;67.30;;;;;;5030401;28;20415;-29
2021/11/27 00:19:43;;;;;;;2.92;1.17;;;17.10;67.10;;;;;;5017128;28;20128;-28
2021/11/27 00:22:09;;;;;;;2.83;1.23;;;17.10;66.90;;;;;;5035631;28;20051;-26
2021/11/27 00:24:34;;;;;;;2.33;1.00;;;17.10;66.70;;;;;;5035172;28;20029;-28
2021/11/27 00:27:00;;;;;;;3.38;1.10;;;17.10;66.50;;;;;;5024596;28;20022;-26
2021/11/27 00:29:25;;;;;;;3.97;1.10;;;17.10;66.40;;;;;;5032561;28;20030;-26
2021/11/27 00:31:51;;;;;;;3.35;1.00;;;17.10;66.10;;;;;;5034562;28;20033;-27
2021/11/27 00:34:17;;;;;;;2.25;0.60;;;17.10;66.00;;;;;;5017184;28;20018;-28
2021/11/27 00:36:43;;;;;;;3.22;1.30;;;17.10;65.80;;;;;;5016498;28;20053;-26
2021/11/27 00:39:09;;;;;;;5.38;0.80;;;17.10;65.70;;;;;;5016062;28;20148;-28
2021/11/27 00:41:35;;;;;;;4.10;0.70;;;17.10;65.50;;;;;;5017841;28;20723;-29
2021/11/27 00:44:01;;;;;;;2.25;0.80;;;17.10;65.30;;;;;;5030551;28;20583;-33
2021/11/27 00:46:27;;;;;;;1.63;0.85;;;17.10;65.20;;;;;;5017277;28;20068;-28
2021/11/27 00:48:52;;;;;;;4.53;0.80;;;17.10;65.10;;;;;;5028632;28;20037;-26
2021/11/27 00:51:20;;;;;;;4.35;1.13;;;17.10;64.90;;;;;;5034212;28;20029;-35
2021/11/27 00:53:46;;;;;;;2.08;1.05;;;17.10;64.80;;;;;;5044183;28;20017;-28
2021/11/27 00:56:14;;;;;;;2.10;0.68;;;17.10;64.70;;;;;;5021087;28;20092;-27
2021/11/27 00:58:39;;;;;;;3.00;0.80;;;17.10;64.70;;;;;;5030829;28;20026;-29
2021/11/27 01:01:09;;;;;;;2.38;0.80;;;17.10;64.50;;;;;;5033930;28;20042;-28
2021/11/27 01:03:35;;;;;;;3.05;0.82;;;17.10;64.50;;;;;;5029611;28;20026;-28
2021/11/27 01:06:02;;;;;;;2.30;0.50;;;17.10;64.30;;;;;;5030622;28;20104;-28
2021/11/27 01:08:28;;;;;;;1.40;0.60;;;17.10;64.20;;;;;;5034200;28;20029;-29
2021/11/27 01:10:59;;;;;;;1.40;0.80;;;17.10;64.20;;;;;;5027040;28;20044;-24
2021/11/27 01:13:25;;;;;;;1.20;0.70;;;17.10;64.20;;;;;;5032006;28;20105;-29
2021/11/27 01:15:51;;;;;;;3.97;0.68;;;17.10;64.10;;;;;;5022598;28;20057;-23
2021/11/27 01:18:16;;;;;;;3.03;0.70;;;17.10;64.00;;;;;;5034551;28;20053;-30
2021/11/27 01:20:48;;;;;;;3.80;0.80;;;17.10;63.90;;;;;;5034879;28;20180;-27
2021/11/27 01:23:14;;;;;;;3.03;0.82;;;17.10;63.80;;;;;;5030017;28;20022;-23
2021/11/27 01:25:40;;;;;;;0.73;0.55;;;17.10;63.90;;;;;;5031438;28;20551;-28
2021/11/27 01:28:06;;;;;;;3.85;0.70;;;17.10;64.60;;;;;;5035512;28;20025;-28
2021/11/27 01:30:32;;;;;;;0.60;0.60;;;17.10;63.80;;;;;;5037959;28;20041;-30
2021/11/27 01:32:57;;;;;;;1.77;0.70;;;17.10;63.80;;;;;;5038987;28;20024;-28
2021/11/27 01:35:23;;;;;;;2.40;0.52;;;17.10;63.70;;;;;;5028944;28;20040;-30
2021/11/27 01:37:49;;;;;;;2.67;0.50;;;17.10;63.60;;;;;;5020118;28;20020;-29
2021/11/27 01:40:18;;;;;;;1.02;0.60;;;17.10;63.60;;;;;;5038360;28;20040;-29
2021/11/27 01:42:43;;;;;;;0.90;0.47;;;17.10;63.60;;;;;;5038756;28;20033;-29
2021/11/27 01:45:09;;;;;;;0.68;0.50;;;17.10;63.60;;;;;;5034511;28;20060;-27
2021/11/27 01:47:35;;;;;;;2.67;0.68;;;17.00;63.60;;;;;;5031803;28;20112;-29
2021/11/27 01:50:01;;;;;;;2.30;0.50;;;17.10;63.50;;;;;;5038631;28;20407;-31
2021/11/27 01:52:26;;;;;;;0.82;0.50;;;17.10;63.50;;;;;;5029030;28;20033;-27
2021/11/27 01:54:52;;;;;;;0.47;0.43;;;17.10;63.50;;;;;;5019470;28;20025;-27
2021/11/27 01:57:17;;;;;;;1.30;0.63;;;17.10;63.50;;;;;;5027048;28;20022;-31
2021/11/27 01:59:43;;;;;;;1.58;0.57;;;17.10;63.50;;;;;;5028653;28;20038;-31
2021/11/27 02:02:10;;;;;;;1.50;0.50;;;17.10;63.40;;;;;;5037567;28;20029;-28
2021/11/27 02:04:36;;;;;;;0.50;0.38;;;17.10;63.40;;;;;;5025515;28;20040;-29
2021/11/27 02:07:02;;;;;;;0.60;0.40;;;17.10;63.30;;;;;;5036984;28;20022;-27
2021/11/27 02:09:29;;;;;;;1.27;0.80;;;17.10;63.20;;;;;;5033726;28;20108;-29
2021/11/27 02:11:55;;;;;;;0.57;0.40;;;17.10;63.10;;;;;;5038467;28;20013;-29
2021/11/27 02:14:21;;;;;;;1.48;0.32;;;17.10;63.20;;;;;;5036350;28;20143;-27
2021/11/27 02:16:47;;;;;;;1.23;0.60;;;17.10;63.30;;;;;;5038476;28;20517;-28
2021/11/27 02:19:13;;;;;;;0.65;0.40;;;17.10;63.20;;;;;;5031843;28;20042;-27
2021/11/27 02:21:41;;;;;;;0.38;0.35;;;17.10;63.10;;;;;;5035197;28;20036;-28
2021/11/27 02:24:07;;;;;;;1.23;0.60;;;17.10;63.10;;;;;;5034289;28;20054;-27
2021/11/27 02:26:34;;;;;;;1.38;0.50;;;17.10;63.10;;;;;;5032943;28;20033;-32
2021/11/27 02:29:01;;;;;;;0.75;0.40;;;17.10;63.00;;;;;;5025002;28;20095;-31
2021/11/27 02:31:27;;;;;;;0.70;0.52;;;17.10;63.00;;;;;;5036802;28;20028;-29
2021/11/27 02:33:55;;;;;;;0.75;0.35;;;17.10;63.00;;;;;;5019216;28;20033;-28
2021/11/27 02:36:21;;;;;;;1.85;0.50;;;17.10;62.90;;;;;;5018700;28;20022;-27
2021/11/27 02:38:46;;;;;;;0.63;0.40;;;17.10;62.90;;;;;;5037174;28;20030;-29
2021/11/27 02:41:13;;;;;;;0.85;0.40;;;17.10;62.80;;;;;;5037056;28;20030;-28
2021/11/27 02:43:39;;;;;;;0.63;0.50;;;17.10;62.90;;;;;;5036327;28;20091;-27
2021/11/27 02:46:04;;;;;;;0.68;0.40;;;17.10;62.90;;;;;;5036280;28;20026;-26
2021/11/27 02:48:30;;;;;;;0.95;0.60;;;17.10;62.90;;;;;;5036614;28;20114;-27
2021/11/27 02:50:56;;;;;;;0.70;0.70;;;17.10;62.90;;;;;;5020423;28;20041;-28
2021/11/27 02:53:21;;;;;;;0.38;0.38;;;17.10;63.00;;;;;;5036027;28;20026;-29
2021/11/27 02:55:47;;;;;;;0.73;0.40;;;17.10;62.80;;;;;;5038529;28;20018;-25
2021/11/27 02:58:13;;;;;;;0.85;0.63;;;17.10;63.70;;;;;;5050950;28;20086;-27
2021/11/27 03:00:39;;;;;;;0.82;0.60;;;17.10;62.80;;;;;;5034308;28;20029;-28
2021/11/27 03:03:04;;;;;;;1.65;0.40;;;17.10;62.70;;;;;;5028048;28;20488;-26
2021/11/27 03:05:30;;;;;;;2.35;0.40;;;17.10;62.70;;;;;;5030871;28;20071;-28
2021/11/27 03:07:56;;;;;;;0.88;0.30;;;17.10;62.60;;;;;;5027811;28;20555;-29
2021/11/27 03:10:22;;;;;;;0.52;0.30;;;17.10;62.60;;;;;;5034111;28;20040;-28
2021/11/27 03:12:48;;;;;;;0.60;0.40;;;17.10;62.60;;;;;;5033534;28;20049;-24
2021/11/27 03:15:15;;;;;;;0.40;0.40;;;17.10;62.50;;;;;;5018502;28;20034;-24
2021/11/27 03:17:41;;;;;;;0.77;0.40;;;17.10;62.50;;;;;;5033587;28;20029;-28
2021/11/27 03:20:07;;;;;;;1.30;0.40;;;17.10;62.60;;;;;;5035754;28;20517;-27
2021/11/27 03:22:33;;;;;;;0.52;0.32;;;17.10;62.60;;;;;;5037570;28;20029;-25
2021/11/27 03:24:59;;;;;;;1.25;0.45;;;17.10;62.60;;;;;;5037600;28;20501;-28
2021/11/27 03:27:24;;;;;;;0.32;0.32;;;17.10;62.50;;;;;;5037594;28;20025;-29
2021/11/27 03:29:50;;;;;;;1.58;0.50;;;17.10;62.50;;;;;;5037362;28;20033;-27
2021/11/27 03:32:16;;;;;;;0.50;0.30;;;17.10;62.50;;;;;;5036188;28;20025;-31
2021/11/27 03:34:42;;;;;;;0.68;0.52;;;17.10;62.40;;;;;;5035940;28;20071;-30
2021/11/27 03:37:08;;;;;;;2.00;0.40;;;17.10;62.50;;;;;;5037572;28;20025;-29
2021/11/27 03:39:34;;;;;;;0.77;0.40;;;17.10;62.40;;;;;;5035615;28;20091;-31
2021/11/27 03:42:00;;;;;;;0.40;0.30;;;17.10;62.40;;;;;;5030741;28;20034;-26
2021/11/27 03:44:26;;;;;;;0.40;0.30;;;17.10;62.30;;;;;;5034501;28;20025;-28
2021/11/27 03:46:52;;;;;;;0.90;0.40;;;17.10;62.30;;;;;;5036924;28;20060;-35
2021/11/27 03:49:23;;;;;;;0.20;0.20;;;17.10;62.30;;;;;;5036412;28;20025;-34
2021/11/27 03:51:48;;;;;;;0.40;0.30;;;17.10;62.30;;;;;;5034680;28;20034;-31
2021/11/27 03:54:14;;;;;;;0.90;0.30;;;17.10;62.20;;;;;;5019243;28;20057;-31
2021/11/27 03:56:39;;;;;;;0.32;0.32;;;17.10;62.30;;;;;;5033020;28;20030;-28
2021/11/27 03:59:06;;;;;;;0.68;0.30;;;17.10;62.20;;;;;;5037231;28;20504;-25
2021/11/27 04:01:32;;;;;;;0.50;0.30;;;17.10;62.10;;;;;;5033877;28;20037;-29
2021/11/27 04:03:58;;;;;;;0.60;0.60;;;17.10;62.10;;;;;;5036666;28;20100;-27
2021/11/27 04:06:23;;;;;;;0.63;0.47;;;17.10;62.20;;;;;;5036004;28;20052;-28
2021/11/27 04:08:50;;;;;;;0.40;0.30;;;17.10;62.10;;;;;;5020822;28;20507;-29
2021/11/27 04:11:15;;;;;;;0.80;0.30;;;17.10;62.10;;;;;;5035487;28;20525;-29
2021/11/27 04:13:41;;;;;;;0.80;0.50;;;17.10;62.00;;;;;;5035420;28;20017;-29
2021/11/27 04:16:07;;;;;;;0.57;0.30;;;17.10;62.00;;;;;;5036709;28;20040;-30
2021/11/27 04:18:33;;;;;;;0.80;0.40;;;17.10;62.00;;;;;;5034301;28;20038;-25
2021/11/27 04:20:58;;;;;;;0.57;0.30;;;17.10;62.00;;;;;;5028066;28;20059;-31
2021/11/27 04:23:24;;;;;;;0.43;0.40;;;17.10;62.10;;;;;;5035461;28;20563;-28
2021/11/27 04:25:50;;;;;;;1.05;0.20;;;17.10;62.00;;;;;;5036686;28;20109;-28
2021/11/27 04:28:15;;;;;;;0.35;0.35;;;17.10;61.90;;;;;;5034798;28;20032;-31
2021/11/27 04:30:41;;;;;;;0.50;0.30;;;17.10;61.90;;;;;;5035748;28;20039;-29
2021/11/27 04:33:07;;;;;;;0.30;0.28;;;17.10;61.90;;;;;;5035192;28;20099;-28
2021/11/27 04:35:32;;;;;;;0.60;0.47;;;17.10;61.90;;;;;;5032869;28;20397;-31
2021/11/27 04:37:58;;;;;;;1.45;0.40;;;17.10;61.90;;;;;;5032336;28;20067;-28
2021/11/27 04:40:24;;;;;;;0.60;0.30;;;17.10;61.90;;;;;;5034302;28;20091;-28
2021/11/27 04:42:50;;;;;;;0.73;0.32;;;17.10;61.80;;;;;;5033833;28;20024;-34
2021/11/27 04:45:15;;;;;;;0.65;0.40;;;17.10;61.80;;;;;;5035396;28;20032;-30
2021/11/27 04:47:41;;;;;;;0.30;0.30;;;17.10;61.80;;;;;;5035404;28;20072;-28
2021/11/27 04:50:07;;;;;;;0.70;0.40;;;17.10;61.80;;;;;;5035073;28;20441;-32
2021/11/27 04:52:33;;;;;;;0.38;0.30;;;17.10;61.80;;;;;;5034426;28;20029;-25
2021/11/27 04:54:59;;;;;;;2.08;0.40;;;17.10;61.80;;;;;;5025351;28;20582;-28
2021/11/27 04:57:24;;;;;;;0.40;0.30;;;17.10;61.60;;;;;;5031697;28;20025;-34
2021/11/27 04:59:50;;;;;;;0.40;0.40;;;17.10;61.70;;;;;;5016481;28;20033;-28
2021/11/27 05:02:15;;;;;;;1.00;0.40;;;17.10;61.70;;;;;;5034350;28;20071;-25
2021/11/27 05:04:41;;;;;;;0.35;0.30;;;17.10;61.60;;;;;;5034292;28;20033;-32
2021/11/27 05:07:07;;;;;;;0.50;0.40;;;17.10;61.60;;;;;;5033151;28;20118;-24
2021/11/27 05:09:33;;;;;;;0.50;0.30;;;17.10;61.70;;;;;;5035559;28;20441;-24
2021/11/27 05:11:58;;;;;;;0.60;0.35;;;17.10;61.60;;;;;;5022707;28;20067;-31
2021/11/27 05:14:24;;;;;;;0.30;0.20;;;17.10;61.50;;;;;;5033304;28;20017;-29
2021/11/27 05:16:50;;;;;;;1.02;0.40;;;17.10;61.70;;;;;;5035676;28;20547;-28
2021/11/27 05:19:15;;;;;;;0.30;0.20;;;17.10;61.60;;;;;;5034603;28;20017;-29
2021/11/27 05:21:41;;;;;;;0.20;0.13;;;17.10;61.70;;;;;;5034676;28;20014;-31
2021/11/27 05:24:06;;;;;;;0.40;0.40;;;17.10;61.60;;;;;;5035657;28;20091;-28
2021/11/27 05:26:32;;;;;;;1.10;0.40;;;17.10;61.50;;;;;;5035701;28;20029;-28
2021/11/27 05:28:58;;;;;;;0.60;0.43;;;17.10;61.60;;;;;;5021435;28;20060;-31
2021/11/27 05:31:24;;;;;;;0.80;0.60;;;17.10;61.50;;;;;;5034361;28;20052;-28
2021/11/27 05:36:28;;;;;;;0.40;0.30;;;17.10;61.50;;;;;;5034830;28;20040;-29
2021/11/27 05:38:54;;;;;;;0.90;0.40;;;17.10;61.50;;;;;;5035027;28;20032;-27
2021/11/27 05:41:19;;;;;;;0.50;0.40;;;17.10;61.50;;;;;;5029930;28;20026;-31
2021/11/27 05:43:45;;;;;;;0.93;0.50;;;17.10;61.50;;;;;;5028067;28;20029;-32
2021/11/27 05:46:11;;;;;;;0.82;0.30;;;17.10;61.40;;;;;;5030731;28;20056;-30
2021/11/27 05:48:36;;;;;;;0.30;0.20;;;17.10;61.40;;;;;;5026611;28;20035;-27
2021/11/27 05:51:02;;;;;;;0.40;0.30;;;17.10;61.50;;;;;;5031798;28;20042;-28
2021/11/27 05:53:28;;;;;;;0.40;0.40;;;17.10;61.40;;;;;;5027346;28;20045;-32
2021/11/27 05:55:53;;;;;;;0.50;0.40;;;17.10;61.50;;;;;;5034356;28;20537;-26
2021/11/27 05:58:20;;;;;;;0.20;0.20;;;17.10;61.50;;;;;;5015827;28;20025;-28
2021/11/27 06:00:46;;;;;;;0.40;0.38;;;17.10;61.30;;;;;;5032876;28;20022;-29
2021/11/27 06:03:11;;;;;;;0.38;0.30;;;17.10;61.30;;;;;;5032136;28;20037;-27
2021/11/27 06:05:37;;;;;;;0.30;0.30;;;17.10;61.30;;;;;;5031077;28;20051;-26
2021/11/27 06:08:04;;;;;;;0.22;0.22;;;17.10;61.20;;;;;;5030126;28;20029;-28
2021/11/27 06:10:30;;;;;;;0.20;0.20;;;17.10;61.20;;;;;;5032923;28;20541;-28
2021/11/27 06:12:55;;;;;;;0.20;0.20;;;17.10;61.30;;;;;;5032531;28;20030;-26
2021/11/27 06:15:21;;;;;;;0.20;0.20;;;17.10;61.30;;;;;;5032480;28;20033;-28
2021/11/27 06:17:47;;;;;;;0.77;0.50;;;17.10;61.20;;;;;;5038079;28;20036;-25
2021/11/27 06:20:13;;;;;;;0.30;0.30;;;17.10;61.10;;;;;;5034032;28;20033;-27
2021/11/27 06:22:38;;;;;;;0.50;0.30;;;17.10;61.10;;;;;;5030880;28;20041;-27
2021/11/27 06:25:05;;;;;;;0.43;0.30;;;17.10;61.10;;;;;;5026677;28;20112;-26
2021/11/27 06:27:30;;;;;;;0.77;0.30;;;17.10;61.10;;;;;;5031190;28;20033;-30
2021/11/27 06:29:56;;;;;;;0.30;0.30;;;17.10;61.10;;;;;;5026825;28;20029;-26
2021/11/27 06:32:23;;;;;;;0.22;0.22;;;17.10;61.00;;;;;;5032264;28;20029;-28
2021/11/27 06:34:52;;;;;;;0.77;0.30;;;17.10;61.10;;;;;;5028262;28;20516;-32
2021/11/27 06:37:19;;;;;;;0.30;0.30;;;17.10;61.10;;;;;;5028405;28;20367;-34
2021/11/27 06:39:44;;;;;;;0.57;0.30;;;17.00;61.10;;;;;;5027944;28;20037;-28
2021/11/27 06:42:10;;;;;;;1.02;0.20;;;17.10;61.10;;;;;;5034139;28;20108;-32
2021/11/27 06:44:35;;;;;;;0.30;0.30;;;17.10;61.00;;;;;;5034545;28;20021;-24
2021/11/27 06:47:01;;;;;;;0.30;0.30;;;17.10;61.10;;;;;;5029251;28;20056;-33
2021/11/27 06:49:27;;;;;;;0.30;0.30;;;17.10;61.10;;;;;;5020238;28;20037;-29
2021/11/27 06:51:52;;;;;;;0.20;0.20;;;17.10;61.00;;;;;;5031245;28;20029;-28
2021/11/27 06:54:18;;;;;;;0.30;0.30;;;17.10;60.90;;;;;;5029224;28;20517;-28
2021/11/27 06:56:43;;;;;;;1.50;0.20;;;17.10;61.00;;;;;;5036475;28;20037;-26
2021/11/27 06:59:09;;;;;;;0.38;0.30;;;17.10;61.10;;;;;;5033554;28;20057;-27
2021/11/27 07:01:35;;;;;;;0.32;0.32;;;17.10;61.10;;;;;;5014321;28;20116;-30
2021/11/27 07:04:00;;;;;;;0.77;0.30;;;17.10;61.10;;;;;;5036184;28;20032;-26
2021/11/27 07:06:26;;;;;;;0.30;0.30;;;17.10;61.00;;;;;;5032362;28;20041;-29
2021/11/27 07:08:52;;;;;;;0.35;0.35;;;17.10;60.90;;;;;;5031977;28;20029;-31
2021/11/27 07:11:17;;;;;;;0.35;0.32;;;17.10;61.10;;;;;;5030079;28;20497;-28
2021/11/27 07:13:43;;;;;;;0.65;0.40;;;17.00;60.90;;;;;;5032986;28;20097;-34
2021/11/27 07:16:08;;;;;;;0.45;0.45;;;17.10;60.90;;;;;;5034870;28;20014;-33
2021/11/27 07:18:34;;;;;;;0.20;0.20;;;17.10;61.10;;;;;;5037727;28;20036;-24
2021/11/27 07:21:00;;;;;;;0.30;0.30;;;17.10;61.10;;;;;;5037428;28;20049;-25
2021/11/27 07:23:25;;;;;;;0.40;0.28;;;17.10;61.00;;;;;;5036607;28;20118;-29
2021/11/27 07:25:51;;;;;;;0.25;0.20;;;17.10;61.00;;;;;;5037318;28;20031;-27
2021/11/27 07:28:16;;;;;;;0.80;0.60;;;17.10;61.00;;;;;;5036777;28;20037;-30
2021/11/27 07:30:42;;;;;;;0.20;0.20;;;17.10;61.00;;;;;;5028317;28;20085;-28
2021/11/27 07:33:07;;;;;;;0.35;0.30;;;17.10;61.00;;;;;;5037360;28;20040;-27
2021/11/27 07:35:33;;;;;;;0.30;0.30;;;17.10;60.80;;;;;;5035552;28;20049;-26
2021/11/27 07:37:59;;;;;;;0.40;0.40;;;17.10;60.70;;;;;;5036647;28;20029;-31
2021/11/27 07:40:25;;;;;;;0.40;0.40;;;17.10;60.70;;;;;;5035802;28;20426;-25
2021/11/27 07:42:52;;;;;;;0.60;0.60;;;17.10;60.70;;;;;;5021177;28;20480;-23
2021/11/27 07:45:18;;;;;;;0.57;0.57;;;17.10;60.90;;;;;;5036363;28;20091;-31
2021/11/27 07:47:44;;;;;;;0.35;0.35;;;17.10;60.80;;;;;;5035165;28;20164;-27
2021/11/27 07:50:10;;;;;;;0.40;0.40;;;17.10;60.80;;;;;;5042173;28;20084;-24
2021/11/27 07:52:35;;;;;;;0.30;0.30;;;17.10;60.70;;;;;;5026547;28;20041;-26
2021/11/27 07:55:01;;;;;;;0.80;0.50;;;17.10;60.80;;;;;;5054841;28;20048;-25
2021/11/27 07:57:26;;;;;;;0.60;0.60;;;17.10;60.70;;;;;;5037746;28;20575;-28
2021/11/27 07:59:52;;;;;;;0.50;0.40;;;17.10;60.80;;;;;;5031108;28;20044;-30
2021/11/27 08:02:18;;;;;;;0.30;0.30;;;17.10;60.80;;;;;;5033903;28;20041;-29
2021/11/27 08:04:43;;;;;;;0.45;0.45;;;17.10;60.80;;;;;;5033380;28;20041;-32
2021/11/27 08:07:09;;;;;;;0.30;0.30;;;17.10;60.80;;;;;;5035134;28;20038;-28
2021/11/27 08:09:34;;;;;;;0.77;0.40;;;17.10;60.80;;;;;;5031540;28;20030;-30
2021/11/27 08:12:01;;;;;;;0.30;0.30;;;17.10;60.90;;;;;;5015326;28;20064;-29
2021/11/27 08:14:31;;;;;;;0.30;0.30;;;17.00;60.90;;;;;;5033633;28;20037;-27
2021/11/27 08:17:00;;;;;;;0.68;0.30;;;17.10;60.90;;;;;;5026527;28;20075;-29
2021/11/27 08:19:27;;;;;;;0.28;0.28;;;17.10;60.80;;;;;;5027331;28;20034;-29
2021/11/27 08:21:52;;;;;;;0.50;0.30;;;17.10;60.90;;;;;;5034231;28;20038;-26
2021/11/27 08:24:18;;;;;;;0.30;0.30;;;17.10;60.90;;;;;;5034440;28;20049;-27
2021/11/27 08:26:44;;;;;;;0.75;0.32;;;17.10;60.90;;;;;;5034548;28;20052;-30
2021/11/27 08:29:09;;;;;;;0.60;0.40;;;17.10;60.90;;;;;;5033579;28;20037;-31
2021/11/27 08:31:35;;;;;;;0.20;0.20;;;17.10;60.80;;;;;;5032231;28;20049;-29
2021/11/27 08:34:01;;;;;;;0.45;0.40;;;17.10;60.80;;;;;;5032452;28;20045;-30
2021/11/27 08:36:27;;;;;;;1.05;0.50;;;17.10;60.90;;;;;;5034396;28;20034;-30
2021/11/27 08:38:52;;;;;;;0.47;0.30;;;17.10;61.10;;;;;;5019185;28;20045;-27
2021/11/27 08:41:18;;;;;;;0.80;0.57;;;17.10;61.10;;;;;;5027366;28;20041;-30
2021/11/27 08:43:43;;;;;;;0.75;0.40;;;17.10;61.10;;;;;;5021351;28;20491;-32
2021/11/27 08:46:09;;;;;;;0.30;0.20;;;17.10;61.10;;;;;;5021977;28;20076;-26
2021/11/27 08:48:37;;;;;;;1.90;0.40;;;17.10;61.20;;;;;;5031152;28;20048;-26
2021/11/27 08:51:04;;;;;;;0.45;0.45;;;17.10;61.40;;;;;;5042623;28;20056;-32
2021/11/27 08:53:30;;;;;;;2.17;0.32;;;17.10;61.50;;;;;;5038125;28;20456;-26
2021/11/27 08:55:55;;;;;;;1.98;0.60;;;17.10;61.30;;;;;;5041859;28;20199;-31
2021/11/27 08:58:21;;;;;;;0.57;0.57;;;17.10;61.50;;;;;;5045717;28;20508;-27
2021/11/27 09:00:47;;;;;;;3.00;0.40;;;17.10;61.80;;;;;;5046327;28;20060;-25
2021/11/27 09:03:13;;;;;;;1.58;0.55;;;17.10;61.40;;;;;;5049101;28;20077;-27
2021/11/27 09:05:38;;;;;;;0.57;0.40;;;17.10;61.40;;;;;;5043578;28;20090;-29
2021/11/27 09:08:04;;;;;;;1.08;0.93;;;17.10;61.80;;;;;;5034769;28;20060;-30
2021/11/27 09:10:30;;;;;;;0.40;0.40;;;17.20;63.50;;;;;;5003600;28;20045;-36
2021/11/27 09:12:55;;;;;;;0.77;0.22;;;17.10;64.10;;;;;;5031676;28;20053;-23
2021/11/27 09:15:21;;;;;;;0.40;0.30;;;17.20;64.50;;;;;;5028521;28;20517;-30
2021/11/27 09:17:47;;;;;;;0.75;0.30;;;17.20;65.30;;;;;;5029742;28;20045;-25
2021/11/27 09:20:12;;;;;;;0.43;0.40;;;17.20;64.40;;;;;;5032253;28;20053;-28
2021/11/27 09:22:38;;;;;;;1.20;0.38;;;17.20;64.30;;;;;;5032720;28;20056;-28
2021/11/27 09:25:04;;;;;;;0.70;0.35;;;17.20;64.20;;;;;;5032494;28;20050;-25
2021/11/27 09:27:30;;;;;;;1.02;0.30;;;17.30;64.20;;;;;;5033148;28;20049;-25
2021/11/27 09:29:55;;;;;;;0.68;0.35;;;17.30;63.90;;;;;;5028794;28;20051;-30
2021/11/27 09:32:22;;;;;;;0.43;0.40;;;17.30;63.70;;;;;;5028537;28;20406;-33
2021/11/27 09:34:48;;;;;;;2.45;0.20;;;17.30;63.80;;;;;;5020814;28;20722;-28
2021/11/27 09:37:16;;;;;;;0.73;0.40;;;17.40;63.70;;;;;;5030477;28;20037;-30
2021/11/27 09:39:43;;;;;;;0.30;0.30;;;17.40;63.40;;;;;;5028872;28;20041;-25
2021/11/27 09:42:12;;;;;;;0.45;0.30;;;17.40;63.40;;;;;;5029834;28;20049;-29
2021/11/27 09:44:38;;;;;;;0.28;0.28;;;17.40;63.40;;;;;;5016930;28;20045;-31
2021/11/27 09:47:03;;;;;;;2.10;0.50;;;17.40;63.30;;;;;;5020057;28;20112;-28
2021/11/27 09:49:29;;;;;;;0.40;0.40;;;17.50;63.20;;;;;;5001844;28;20076;-29
2021/11/27 09:51:55;;;;;;;0.20;0.20;;;17.50;63.20;;;;;;4991789;28;20038;-27
2021/11/27 09:54:21;;;;;;;2.10;0.30;;;17.50;63.10;;;;;;4993723;28;20129;-31
2021/11/27 09:56:47;;;;;;;0.77;0.30;;;17.60;62.90;;;;;;5000910;28;20580;-31
2021/11/27 09:59:13;;;;;;;1.10;0.40;;;17.60;62.90;;;;;;4997264;28;20050;-32
2021/11/27 10:01:44;;;;;;;0.80;0.47;;;17.60;62.60;;;;;;5015091;28;20176;-32
2021/11/27 10:04:10;;;;;;;0.93;0.40;;;17.50;62.80;;;;;;4998415;28;20077;-26
2021/11/27 10:06:39;;;;;;;0.95;0.55;;;17.60;62.80;;;;;;4987353;28;20125;-28
2021/11/27 10:09:10;;;;;;;0.55;0.40;;;17.60;62.50;;;;;;4992835;28;20061;-29
2021/11/27 10:11:36;;;;;;;0.57;0.50;;;17.60;62.30;;;;;;4993995;28;20050;-27
2021/11/27 10:14:03;;;;;;;0.50;0.40;;;17.70;62.30;;;;;;4987417;28;20134;-30
2021/11/27 10:16:31;;;;;;;1.05;0.43;;;17.70;62.20;;;;;;4995270;28;20046;-26
2021/11/27 10:19:10;;;;;;;0.40;0.40;;;17.70;62.30;;;;;;5012822;28;20440;-27
2021/11/27 10:21:37;;;;;;;0.47;0.30;;;17.70;62.30;;;;;;5005715;28;20046;-28
2021/11/27 10:24:35;;;;;;;0.90;0.40;;;17.70;62.30;;;;;;4994444;28;20531;-31
2021/11/27 10:27:02;;;;;;;0.52;0.40;;;17.70;62.50;;;;;;4973445;28;20597;-32
2021/11/27 10:29:35;;;;;;;1.33;0.60;;;17.80;62.40;;;;;;4651807;28;9999725;-33
2021/11/27 10:32:07;;;;;;;0.40;0.40;;;17.80;62.20;;;;;;4994128;28;20062;-27
2021/11/27 10:34:33;;;;;;;1.80;0.50;;;17.80;62.10;;;;;;4994843;28;20085;-27
2021/11/27 10:36:58;;;;;;;0.77;0.50;;;17.80;62.10;;;;;;4990504;28;20046;-27
2021/11/27 10:39:24;;;;;;;0.32;0.30;;;17.80;62.10;;;;;;5000273;28;20046;-30
2021/11/27 10:42:04;;;;;;;1.55;0.68;;;17.90;62.10;;;;;;5008073;28;20038;-26
2021/11/27 10:44:35;;;;;;;0.30;0.30;;;17.80;62.00;;;;;;4997668;28;20205;-29
2021/11/27 10:47:14;;;;;;;2.90;0.50;;;17.90;61.80;;;;;;5007777;28;20057;-28
2021/11/27 10:49:41;;;;;;;2.95;0.68;;;18.00;61.60;;;;;;5036810;28;20091;-29
2021/11/27 10:52:15;;;;;;;0.45;0.45;;;18.10;61.40;;;;;;5036141;28;20493;-30
2021/11/27 10:54:53;;;;;;;4.07;1.27;;;18.10;61.30;;;;;;5036951;28;20461;-26
2021/11/27 10:57:33;;;;;;;3.15;1.15;;;18.20;61.20;;;;;;5035976;28;20057;-28
2021/11/27 11:00:00;;;;;;;4.05;1.45;;;18.10;61.60;;;;;;5035590;28;20042;-27
2021/11/27 11:02:28;;;;;;;3.28;1.10;;;18.00;61.80;;;;;;5035683;28;20095;-28
2021/11/27 11:05:05;;;;;;;2.00;1.30;;;17.90;61.90;;;;;;5020014;28;20050;-25
2021/11/27 11:07:31;;;;;;;3.15;1.27;;;17.90;61.80;;;;;;5046013;28;20071;-30
2021/11/27 11:10:09;;;;;;;2.20;1.00;;;18.00;61.70;;;;;;5022210;28;20632;-26
2021/11/27 11:12:48;;;;;;;3.20;1.17;;;17.90;61.80;;;;;;5036090;28;20049;-31
2021/11/27 11:15:38;;;;;;;2.17;1.38;;;17.90;61.80;;;;;;5053364;28;20041;-31
2021/11/27 11:18:12;;;;;;;4.90;1.35;;;17.90;61.90;;;;;;5053524;28;20056;-33
2021/11/27 11:20:47;;;;;;;1.92;1.10;;;17.90;61.80;;;;;;5044080;28;20036;-30
2021/11/27 11:23:24;;;;;;;1.85;1.05;;;17.90;61.80;;;;;;5053180;28;20049;-27
2021/11/27 11:26:12;;;;;;;4.05;1.30;;;17.90;61.70;;;;;;5046238;28;20061;-26
2021/11/27 11:28:59;;;;;;;4.70;1.10;;;17.90;61.70;;;;;;5042283;28;20041;-25
2021/11/27 11:31:27;;;;;;;3.53;1.10;;;17.80;61.70;;;;;;5029736;28;20644;-34
2021/11/27 11:34:00;;;;;;;2.70;1.02;;;17.80;61.70;;;;;;5021024;28;20046;-27
2021/11/27 11:36:26;;;;;;;2.15;1.00;;;17.80;61.80;;;;;;5035535;28;20041;-28
2021/11/27 11:38:53;;;;;;;2.33;0.90;;;17.80;61.70;;;;;;5028774;28;20049;-32
2021/11/27 11:41:20;;;;;;;2.22;1.10;;;17.80;61.60;;;;;;5036242;28;20048;-25
2021/11/27 11:43:45;;;;;;;1.52;1.05;;;17.90;61.50;;;;;;5035906;28;20041;-32
2021/11/27 11:46:11;;;;;;;0.93;0.80;;;17.80;61.50;;;;;;5043762;28;20158;-30
2021/11/27 11:48:37;;;;;;;2.00;0.80;;;17.80;61.60;;;;;;5057077;28;20483;-24
2021/11/27 11:51:23;;;;;;;1.38;0.80;;;17.80;61.60;;;;;;5033700;28;20053;-30
2021/11/27 11:53:51;;;;;;;1.98;1.00;;;17.80;61.60;;;;;;5033567;28;20548;-25
2021/11/27 11:56:18;;;;;;;1.05;0.90;;;17.80;61.60;;;;;;5050863;28;20518;-27
2021/11/27 11:58:46;;;;;;;2.35;0.80;;;17.70;61.50;;;;;;5033169;28;20060;-26
2021/11/27 12:01:20;;;;;;;1.25;0.70;;;17.70;61.50;;;;;;5041397;28;20052;-31
2021/11/27 12:03:48;;;;;;;2.47;0.95;;;17.70;61.50;;;;;;5041248;28;20461;-32
2021/11/27 12:06:15;;;;;;;1.23;0.73;;;17.70;61.40;;;;;;5028694;28;20049;-27
2021/11/27 12:08:51;;;;;;;3.40;0.82;;;17.70;61.40;;;;;;5049898;28;20047;-27
2021/11/27 12:11:41;;;;;;;2.08;0.80;;;17.70;61.40;;;;;;5036428;28;20111;-32
2021/11/27 12:14:22;;;;;;;0.80;0.65;;;17.70;62.20;;;;;;5021894;28;20046;-26
2021/11/27 12:17:19;;;;;;;1.00;0.68;;;17.70;61.40;;;;;;5035904;28;20048;-23
2021/11/27 12:20:03;;;;;;;1.05;0.95;;;17.60;61.40;;;;;;5029523;28;20776;-28
2021/11/27 12:22:33;;;;;;;;;;;17.60;61.50;;;;;;5050291;28;20118;-29
2021/11/27 12:25:14;;;;;;;2.08;0.80;;;17.60;61.40;;;;;;5043070;28;19972;-35
2021/11/27 12:28:10;;;;;;;2.03;0.77;;;17.70;61.40;;;;;;5037018;28;20124;-33
2021/11/27 12:30:44;;;;;;;2.53;0.80;;;17.70;61.40;;;;;;5010549;28;20050;-27
2021/11/27 12:33:48;;;;;;;2.15;0.70;;;17.60;61.40;;;;;;5027094;28;20057;-26
2021/11/27 12:36:29;;;;;;;1.23;0.90;;;17.60;61.50;;;;;;5036990;28;20041;-28
2021/11/27 12:38:55;;;;;;;1.27;0.82;;;17.60;61.50;;;;;;5027515;28;20530;-26
2021/11/27 12:41:51;;;;;;;1.08;0.80;;;17.60;61.60;;;;;;5033578;28;20422;-30
2021/11/27 12:44:22;;;;;;;0.90;0.60;;;17.60;61.50;;;;;;5024800;28;20133;-28
2021/11/27 12:46:51;;;;;;;1.45;0.65;;;17.60;61.40;;;;;;5037010;28;20057;-30
2021/11/27 12:49:33;;;;;;;0.88;0.57;;;17.60;61.40;;;;;;5055593;28;20048;-32
2021/11/27 12:52:22;;;;;;;2.85;0.77;;;17.60;61.20;;;;;;5051612;28;20048;-29